sensor_id;sensor_type;location;lat;lon;timestamp;P1;durP1;ratioP1;P2;durP2;ratioP2
20986;SDS011;10652;50.306;8.570;2022-08-25T00:02:54;3.10;;;1.73;;
20986;SDS011;10652;50.306;8.570;2022-08-25T00:06:58;2.85;;;1.70;;
20986;SDS011;10652;50.306;8.570;2022-08-25T00:11:05;2.72;;;1.58;;
20986;SDS011;10652;50.306;8.570;2022-08-25T00:15:12;3.20;;;1.80;;
20986;SDS011;10652;50.306;8.570;2022-08-25T00:19:17;3.63;;;1.90;;
20986;SDS011;10652;50.306;8.570;2022-08-25T00:23:22;2.90;;;1.77;;
20986;SDS011;10652;50.306;8.570;2022-08-25T00:27:25;2.80;;;1.83;;
20986;SDS011;10652;50.306;8.570;2022-08-25T00:31:28;2.45;;;1.70;;
20986;SDS011;10652;50.306;8.570;2022-08-25T00:35:39;3.85;;;2.00;;
20986;SDS011;10652;50.306;8.570;2022-08-25T00:39:43;4.18;;;1.85;;
20986;SDS011;10652;50.306;8.570;2022-08-25T00:43:52;4.15;;;1.98;;
20986;SDS011;10652;50.306;8.570;2022-08-25T00:47:57;3.28;;;2.00;;
20986;SDS011;10652;50.306;8.570;2022-08-25T00:52:05;3.42;;;2.25;;
20986;SDS011;10652;50.306;8.570;2022-08-25T00:56:11;2.88;;;1.85;;
20986;SDS011;10652;50.306;8.570;2022-08-25T01:00:16;2.33;;;2.03;;
20986;SDS011;10652;50.306;8.570;2022-08-25T01:04:21;3.35;;;2.00;;
20986;SDS011;10652;50.306;8.570;2022-08-25T01:08:23;3.42;;;2.20;;
20986;SDS011;10652;50.306;8.570;2022-08-25T01:12:30;6.18;;;2.45;;
20986;SDS011;10652;50.306;8.570;2022-08-25T01:16:35;2.42;;;1.80;;
20986;SDS011;10652;50.306;8.570;2022-08-25T01:20:39;3.30;;;2.42;;
20986;SDS011;10652;50.306;8.570;2022-08-25T01:24:55;2.58;;;2.03;;
20986;SDS011;10652;50.306;8.570;2022-08-25T01:29:04;4.13;;;2.30;;
20986;SDS011;10652;50.306;8.570;2022-08-25T01:33:23;4.22;;;2.30;;
20986;SDS011;10652;50.306;8.570;2022-08-25T01:37:25;4.13;;;2.30;;
20986;SDS011;10652;50.306;8.570;2022-08-25T01:45:29;4.88;;;2.35;;
20986;SDS011;10652;50.306;8.570;2022-08-25T01:49:32;4.45;;;2.50;;
20986;SDS011;10652;50.306;8.570;2022-08-25T01:53:34;2.17;;;1.98;;
20986;SDS011;10652;50.306;8.570;2022-08-25T01:57:36;3.03;;;2.63;;
20986;SDS011;10652;50.306;8.570;2022-08-25T02:01:38;3.50;;;2.78;;
20986;SDS011;10652;50.306;8.570;2022-08-25T02:05:40;3.90;;;2.70;;
20986;SDS011;10652;50.306;8.570;2022-08-25T02:09:43;2.78;;;2.15;;
20986;SDS011;10652;50.306;8.570;2022-08-25T02:13:45;4.50;;;2.67;;
20986;SDS011;10652;50.306;8.570;2022-08-25T02:17:47;5.47;;;2.80;;
20986;SDS011;10652;50.306;8.570;2022-08-25T02:21:49;4.47;;;2.88;;
20986;SDS011;10652;50.306;8.570;2022-08-25T02:25:52;4.63;;;2.78;;
20986;SDS011;10652;50.306;8.570;2022-08-25T02:29:54;2.90;;;2.60;;
20986;SDS011;10652;50.306;8.570;2022-08-25T02:33:56;4.55;;;2.83;;
20986;SDS011;10652;50.306;8.570;2022-08-25T02:37:58;3.53;;;2.78;;
20986;SDS011;10652;50.306;8.570;2022-08-25T02:42:00;5.10;;;2.78;;
20986;SDS011;10652;50.306;8.570;2022-08-25T02:46:03;3.80;;;2.75;;
20986;SDS011;10652;50.306;8.570;2022-08-25T02:50:07;3.75;;;2.58;;
20986;SDS011;10652;50.306;8.570;2022-08-25T02:54:10;3.83;;;2.97;;
20986;SDS011;10652;50.306;8.570;2022-08-25T02:58:13;3.10;;;2.80;;
20986;SDS011;10652;50.306;8.570;2022-08-25T03:02:15;4.93;;;2.60;;
20986;SDS011;10652;50.306;8.570;2022-08-25T03:06:19;2.70;;;2.50;;
20986;SDS011;10652;50.306;8.570;2022-08-25T03:10:25;4.38;;;2.78;;
20986;SDS011;10652;50.306;8.570;2022-08-25T03:14:27;2.80;;;2.60;;
20986;SDS011;10652;50.306;8.570;2022-08-25T03:18:30;4.00;;;3.05;;
20986;SDS011;10652;50.306;8.570;2022-08-25T03:22:32;4.70;;;3.25;;
20986;SDS011;10652;50.306;8.570;2022-08-25T03:26:34;4.22;;;3.05;;
20986;SDS011;10652;50.306;8.570;2022-08-25T03:30:54;3.83;;;2.83;;
20986;SDS011;10652;50.306;8.570;2022-08-25T03:34:57;3.58;;;2.70;;
20986;SDS011;10652;50.306;8.570;2022-08-25T03:39:02;4.32;;;3.30;;
20986;SDS011;10652;50.306;8.570;2022-08-25T03:43:05;4.63;;;3.28;;
20986;SDS011;10652;50.306;8.570;2022-08-25T03:47:07;3.58;;;3.10;;
20986;SDS011;10652;50.306;8.570;2022-08-25T03:51:09;4.15;;;2.97;;
20986;SDS011;10652;50.306;8.570;2022-08-25T03:55:12;5.72;;;2.92;;
20986;SDS011;10652;50.306;8.570;2022-08-25T03:59:15;3.78;;;3.35;;
20986;SDS011;10652;50.306;8.570;2022-08-25T04:03:17;5.50;;;3.10;;
20986;SDS011;10652;50.306;8.570;2022-08-25T04:07:20;3.95;;;2.92;;
20986;SDS011;10652;50.306;8.570;2022-08-25T04:11:22;3.20;;;2.90;;
20986;SDS011;10652;50.306;8.570;2022-08-25T04:15:25;4.70;;;3.20;;
20986;SDS011;10652;50.306;8.570;2022-08-25T04:19:31;4.00;;;3.20;;
20986;SDS011;10652;50.306;8.570;2022-08-25T04:23:33;3.80;;;3.50;;
20986;SDS011;10652;50.306;8.570;2022-08-25T04:27:35;5.25;;;3.28;;
20986;SDS011;10652;50.306;8.570;2022-08-25T04:31:38;3.72;;;3.20;;
20986;SDS011;10652;50.306;8.570;2022-08-25T04:35:48;6.00;;;3.63;;
20986;SDS011;10652;50.306;8.570;2022-08-25T04:39:50;3.80;;;3.40;;
20986;SDS011;10652;50.306;8.570;2022-08-25T04:43:54;5.47;;;3.60;;
20986;SDS011;10652;50.306;8.570;2022-08-25T04:47:58;6.30;;;3.45;;
20986;SDS011;10652;50.306;8.570;2022-08-25T04:52:02;6.28;;;4.05;;
20986;SDS011;10652;50.306;8.570;2022-08-25T04:56:05;4.22;;;3.83;;
20986;SDS011;10652;50.306;8.570;2022-08-25T05:00:10;6.28;;;3.70;;
20986;SDS011;10652;50.306;8.570;2022-08-25T05:04:16;5.05;;;3.60;;
20986;SDS011;10652;50.306;8.570;2022-08-25T05:08:29;4.40;;;4.00;;
20986;SDS011;10652;50.306;8.570;2022-08-25T05:12:32;7.93;;;3.90;;
20986;SDS011;10652;50.306;8.570;2022-08-25T05:16:37;5.90;;;3.85;;
20986;SDS011;10652;50.306;8.570;2022-08-25T05:20:39;4.28;;;3.67;;
20986;SDS011;10652;50.306;8.570;2022-08-25T05:24:41;9.27;;;4.00;;
20986;SDS011;10652;50.306;8.570;2022-08-25T05:28:44;4.78;;;3.60;;
20986;SDS011;10652;50.306;8.570;2022-08-25T05:32:47;7.95;;;4.25;;
20986;SDS011;10652;50.306;8.570;2022-08-25T05:36:49;6.22;;;4.20;;
20986;SDS011;10652;50.306;8.570;2022-08-25T05:40:55;5.57;;;4.00;;
20986;SDS011;10652;50.306;8.570;2022-08-25T05:44:59;9.82;;;4.30;;
20986;SDS011;10652;50.306;8.570;2022-08-25T05:49:01;5.38;;;4.35;;
20986;SDS011;10652;50.306;8.570;2022-08-25T05:53:03;12.15;;;4.30;;
20986;SDS011;10652;50.306;8.570;2022-08-25T05:57:06;14.60;;;4.78;;
20986;SDS011;10652;50.306;8.570;2022-08-25T06:01:09;7.18;;;4.10;;
20986;SDS011;10652;50.306;8.570;2022-08-25T06:05:37;7.65;;;4.28;;
20986;SDS011;10652;50.306;8.570;2022-08-25T06:09:40;7.50;;;4.03;;
20986;SDS011;10652;50.306;8.570;2022-08-25T06:13:43;10.57;;;4.32;;
20986;SDS011;10652;50.306;8.570;2022-08-25T06:17:46;10.82;;;4.68;;
20986;SDS011;10652;50.306;8.570;2022-08-25T06:21:51;8.75;;;4.10;;
20986;SDS011;10652;50.306;8.570;2022-08-25T06:25:55;7.13;;;4.00;;
20986;SDS011;10652;50.306;8.570;2022-08-25T06:29:57;7.53;;;4.22;;
20986;SDS011;10652;50.306;8.570;2022-08-25T06:34:05;8.55;;;5.13;;
20986;SDS011;10652;50.306;8.570;2022-08-25T06:38:07;8.60;;;4.90;;
20986;SDS011;10652;50.306;8.570;2022-08-25T06:42:09;5.78;;;4.32;;
20986;SDS011;10652;50.306;8.570;2022-08-25T06:46:17;7.30;;;4.57;;
20986;SDS011;10652;50.306;8.570;2022-08-25T06:50:21;7.70;;;4.60;;
20986;SDS011;10652;50.306;8.570;2022-08-25T06:54:23;6.72;;;5.30;;
20986;SDS011;10652;50.306;8.570;2022-08-25T06:58:25;5.38;;;4.80;;
20986;SDS011;10652;50.306;8.570;2022-08-25T07:02:28;5.90;;;5.07;;
20986;SDS011;10652;50.306;8.570;2022-08-25T07:06:31;8.35;;;5.20;;
20986;SDS011;10652;50.306;8.570;2022-08-25T07:10:36;10.83;;;5.27;;
20986;SDS011;10652;50.306;8.570;2022-08-25T07:14:38;7.38;;;5.00;;
20986;SDS011;10652;50.306;8.570;2022-08-25T07:18:54;6.65;;;4.93;;
20986;SDS011;10652;50.306;8.570;2022-08-25T07:22:57;9.13;;;5.30;;
20986;SDS011;10652;50.306;8.570;2022-08-25T07:27:00;6.75;;;5.50;;
20986;SDS011;10652;50.306;8.570;2022-08-25T07:31:03;7.65;;;6.18;;
20986;SDS011;10652;50.306;8.570;2022-08-25T07:35:05;5.75;;;5.05;;
20986;SDS011;10652;50.306;8.570;2022-08-25T07:39:20;7.13;;;5.07;;
20986;SDS011;10652;50.306;8.570;2022-08-25T07:43:23;8.38;;;5.57;;
20986;SDS011;10652;50.306;8.570;2022-08-25T07:47:25;6.50;;;4.80;;
20986;SDS011;10652;50.306;8.570;2022-08-25T07:51:27;6.60;;;5.35;;
20986;SDS011;10652;50.306;8.570;2022-08-25T07:55:30;8.80;;;5.53;;
20986;SDS011;10652;50.306;8.570;2022-08-25T07:59:32;9.63;;;6.22;;
20986;SDS011;10652;50.306;8.570;2022-08-25T08:03:41;6.72;;;5.70;;
20986;SDS011;10652;50.306;8.570;2022-08-25T08:07:52;6.10;;;5.28;;
20986;SDS011;10652;50.306;8.570;2022-08-25T08:11:55;6.75;;;5.20;;
20986;SDS011;10652;50.306;8.570;2022-08-25T08:15:58;7.97;;;5.95;;
20986;SDS011;10652;50.306;8.570;2022-08-25T08:20:00;7.40;;;5.63;;
20986;SDS011;10652;50.306;8.570;2022-08-25T08:24:06;9.07;;;5.75;;
20986;SDS011;10652;50.306;8.570;2022-08-25T08:28:28;6.30;;;5.60;;
20986;SDS011;10652;50.306;8.570;2022-08-25T08:32:31;8.82;;;6.57;;
20986;SDS011;10652;50.306;8.570;2022-08-25T08:36:53;6.65;;;5.50;;
20986;SDS011;10652;50.306;8.570;2022-08-25T08:45:28;6.32;;;4.88;;
20986;SDS011;10652;50.306;8.570;2022-08-25T08:49:40;5.57;;;5.05;;
20986;SDS011;10652;50.306;8.570;2022-08-25T08:54:10;7.72;;;5.00;;
20986;SDS011;10652;50.306;8.570;2022-08-25T08:58:20;5.72;;;4.93;;
20986;SDS011;10652;50.306;8.570;2022-08-25T09:02:34;6.40;;;4.65;;
20986;SDS011;10652;50.306;8.570;2022-08-25T09:06:52;5.80;;;4.47;;
20986;SDS011;10652;50.306;8.570;2022-08-25T09:10:58;5.13;;;4.03;;
20986;SDS011;10652;50.306;8.570;2022-08-25T09:32:53;4.05;;;3.50;;
20986;SDS011;10652;50.306;8.570;2022-08-25T09:37:05;5.35;;;3.92;;
20986;SDS011;10652;50.306;8.570;2022-08-25T09:41:08;7.30;;;4.47;;
20986;SDS011;10652;50.306;8.570;2022-08-25T09:45:12;6.03;;;4.32;;
20986;SDS011;10652;50.306;8.570;2022-08-25T09:49:15;6.10;;;4.35;;
20986;SDS011;10652;50.306;8.570;2022-08-25T09:53:17;5.72;;;4.90;;
20986;SDS011;10652;50.306;8.570;2022-08-25T09:58:12;7.07;;;4.82;;
20986;SDS011;10652;50.306;8.570;2022-08-25T10:01:55;6.63;;;4.60;;
20986;SDS011;10652;50.306;8.570;2022-08-25T10:06:04;6.87;;;5.13;;
20986;SDS011;10652;50.306;8.570;2022-08-25T10:10:17;5.32;;;4.82;;
20986;SDS011;10652;50.306;8.570;2022-08-25T10:18:34;8.27;;;5.10;;
20986;SDS011;10652;50.306;8.570;2022-08-25T10:22:37;7.68;;;4.65;;
20986;SDS011;10652;50.306;8.570;2022-08-25T10:35:23;7.40;;;4.40;;
20986;SDS011;10652;50.306;8.570;2022-08-25T10:39:28;7.07;;;4.95;;
20986;SDS011;10652;50.306;8.570;2022-08-25T10:52:37;5.88;;;4.43;;
20986;SDS011;10652;50.306;8.570;2022-08-25T10:57:04;5.07;;;4.47;;
20986;SDS011;10652;50.306;8.570;2022-08-25T11:05:55;5.47;;;4.55;;
20986;SDS011;10652;50.306;8.570;2022-08-25T11:10:46;6.38;;;4.55;;
20986;SDS011;10652;50.306;8.570;2022-08-25T11:14:34;5.88;;;4.22;;
20986;SDS011;10652;50.306;8.570;2022-08-25T11:18:49;6.05;;;4.05;;
20986;SDS011;10652;50.306;8.570;2022-08-25T11:23:01;5.40;;;4.35;;
20986;SDS011;10652;50.306;8.570;2022-08-25T11:27:22;4.80;;;4.25;;
20986;SDS011;10652;50.306;8.570;2022-08-25T11:31:36;5.28;;;4.28;;
20986;SDS011;10652;50.306;8.570;2022-08-25T11:39:57;7.60;;;4.60;;
20986;SDS011;10652;50.306;8.570;2022-08-25T11:52:55;4.53;;;4.13;;
20986;SDS011;10652;50.306;8.570;2022-08-25T11:57:05;4.90;;;4.40;;
20986;SDS011;10652;50.306;8.570;2022-08-25T12:01:10;4.68;;;4.22;;
20986;SDS011;10652;50.306;8.570;2022-08-25T12:13:56;6.07;;;4.78;;
20986;SDS011;10652;50.306;8.570;2022-08-25T12:30:54;4.13;;;3.75;;
20986;SDS011;10652;50.306;8.570;2022-08-25T12:35:09;3.85;;;3.45;;
20986;SDS011;10652;50.306;8.570;2022-08-25T12:39:22;6.50;;;3.80;;
20986;SDS011;10652;50.306;8.570;2022-08-25T12:43:33;4.30;;;3.63;;
20986;SDS011;10652;50.306;8.570;2022-08-25T12:47:38;4.72;;;3.50;;
20986;SDS011;10652;50.306;8.570;2022-08-25T13:00:20;4.30;;;3.15;;
20986;SDS011;10652;50.306;8.570;2022-08-25T13:13:34;3.60;;;3.30;;
20986;SDS011;10652;50.306;8.570;2022-08-25T13:17:47;4.50;;;3.40;;
20986;SDS011;10652;50.306;8.570;2022-08-25T13:21:53;4.32;;;3.85;;
20986;SDS011;10652;50.306;8.570;2022-08-25T13:25:58;4.30;;;3.90;;
20986;SDS011;10652;50.306;8.570;2022-08-25T13:30:02;3.78;;;3.40;;
20986;SDS011;10652;50.306;8.570;2022-08-25T13:34:16;4.93;;;3.38;;
20986;SDS011;10652;50.306;8.570;2022-08-25T13:38:21;5.93;;;3.70;;
20986;SDS011;10652;50.306;8.570;2022-08-25T13:42:23;5.15;;;3.53;;
20986;SDS011;10652;50.306;8.570;2022-08-25T13:50:33;4.80;;;3.42;;
20986;SDS011;10652;50.306;8.570;2022-08-25T13:54:38;4.40;;;4.00;;
20986;SDS011;10652;50.306;8.570;2022-08-25T13:58:42;4.90;;;3.78;;
20986;SDS011;10652;50.306;8.570;2022-08-25T14:02:48;3.63;;;3.33;;
20986;SDS011;10652;50.306;8.570;2022-08-25T14:07:10;4.38;;;3.70;;
20986;SDS011;10652;50.306;8.570;2022-08-25T14:11:28;3.95;;;3.65;;
20986;SDS011;10652;50.306;8.570;2022-08-25T14:15:31;3.97;;;3.55;;
20986;SDS011;10652;50.306;8.570;2022-08-25T14:19:35;3.95;;;3.45;;
20986;SDS011;10652;50.306;8.570;2022-08-25T14:23:48;4.10;;;3.70;;
20986;SDS011;10652;50.306;8.570;2022-08-25T14:27:54;4.47;;;3.97;;
20986;SDS011;10652;50.306;8.570;2022-08-25T14:32:14;4.35;;;3.72;;
20986;SDS011;10652;50.306;8.570;2022-08-25T14:36:17;4.85;;;3.55;;
20986;SDS011;10652;50.306;8.570;2022-08-25T14:40:21;3.78;;;3.38;;
20986;SDS011;10652;50.306;8.570;2022-08-25T14:44:24;3.40;;;3.10;;
20986;SDS011;10652;50.306;8.570;2022-08-25T14:48:29;3.63;;;3.33;;
20986;SDS011;10652;50.306;8.570;2022-08-25T14:52:39;5.05;;;3.10;;
20986;SDS011;10652;50.306;8.570;2022-08-25T14:56:44;4.32;;;3.25;;
20986;SDS011;10652;50.306;8.570;2022-08-25T15:00:48;3.20;;;2.90;;
20986;SDS011;10652;50.306;8.570;2022-08-25T15:04:52;3.88;;;3.30;;
20986;SDS011;10652;50.306;8.570;2022-08-25T15:08:58;3.25;;;2.88;;
20986;SDS011;10652;50.306;8.570;2022-08-25T15:13:09;4.10;;;3.40;;
20986;SDS011;10652;50.306;8.570;2022-08-25T15:17:11;3.63;;;3.10;;
20986;SDS011;10652;50.306;8.570;2022-08-25T15:21:15;3.60;;;3.30;;
20986;SDS011;10652;50.306;8.570;2022-08-25T15:25:18;4.32;;;3.25;;
20986;SDS011;10652;50.306;8.570;2022-08-25T15:29:21;4.55;;;3.72;;
20986;SDS011;10652;50.306;8.570;2022-08-25T15:33:24;4.60;;;3.40;;
20986;SDS011;10652;50.306;8.570;2022-08-25T15:37:27;5.05;;;3.70;;
20986;SDS011;10652;50.306;8.570;2022-08-25T15:41:30;3.90;;;3.22;;
20986;SDS011;10652;50.306;8.570;2022-08-25T15:45:34;3.75;;;3.20;;
20986;SDS011;10652;50.306;8.570;2022-08-25T15:49:39;4.07;;;3.50;;
20986;SDS011;10652;50.306;8.570;2022-08-25T15:53:41;4.35;;;3.55;;
20986;SDS011;10652;50.306;8.570;2022-08-25T15:57:43;5.72;;;3.22;;
20986;SDS011;10652;50.306;8.570;2022-08-25T16:01:45;3.53;;;3.03;;
20986;SDS011;10652;50.306;8.570;2022-08-25T16:05:47;4.15;;;3.42;;
20986;SDS011;10652;50.306;8.570;2022-08-25T16:09:50;8.05;;;3.70;;
20986;SDS011;10652;50.306;8.570;2022-08-25T16:17:59;4.28;;;3.22;;
20986;SDS011;10652;50.306;8.570;2022-08-25T16:22:05;3.88;;;3.40;;
20986;SDS011;10652;50.306;8.570;2022-08-25T16:26:12;3.83;;;3.45;;
20986;SDS011;10652;50.306;8.570;2022-08-25T16:30:14;4.00;;;3.60;;
20986;SDS011;10652;50.306;8.570;2022-08-25T16:34:18;5.68;;;3.63;;
20986;SDS011;10652;50.306;8.570;2022-08-25T16:38:21;4.88;;;3.72;;
20986;SDS011;10652;50.306;8.570;2022-08-25T16:42:23;3.67;;;3.35;;
20986;SDS011;10652;50.306;8.570;2022-08-25T16:46:26;5.53;;;3.92;;
20986;SDS011;10652;50.306;8.570;2022-08-25T16:50:29;6.63;;;3.50;;
20986;SDS011;10652;50.306;8.570;2022-08-25T16:54:35;4.25;;;3.80;;
20986;SDS011;10652;50.306;8.570;2022-08-25T16:58:57;4.22;;;3.60;;
20986;SDS011;10652;50.306;8.570;2022-08-25T17:03:01;3.50;;;3.20;;
20986;SDS011;10652;50.306;8.570;2022-08-25T17:07:05;6.72;;;3.90;;
20986;SDS011;10652;50.306;8.570;2022-08-25T17:11:10;4.07;;;3.40;;
20986;SDS011;10652;50.306;8.570;2022-08-25T17:15:14;4.03;;;3.50;;
20986;SDS011;10652;50.306;8.570;2022-08-25T17:19:22;3.67;;;3.25;;
20986;SDS011;10652;50.306;8.570;2022-08-25T17:23:27;3.38;;;3.00;;
20986;SDS011;10652;50.306;8.570;2022-08-25T17:27:30;4.10;;;3.45;;
20986;SDS011;10652;50.306;8.570;2022-08-25T17:31:32;5.18;;;3.20;;
20986;SDS011;10652;50.306;8.570;2022-08-25T17:35:41;3.83;;;3.03;;
20986;SDS011;10652;50.306;8.570;2022-08-25T17:39:45;3.00;;;2.50;;
20986;SDS011;10652;50.306;8.570;2022-08-25T17:43:50;3.15;;;2.80;;
20986;SDS011;10652;50.306;8.570;2022-08-25T17:47:52;2.83;;;2.50;;
20986;SDS011;10652;50.306;8.570;2022-08-25T17:51:55;4.38;;;2.67;;
20986;SDS011;10652;50.306;8.570;2022-08-25T17:56:01;5.95;;;2.80;;
20986;SDS011;10652;50.306;8.570;2022-08-25T18:00:11;4.43;;;2.75;;
20986;SDS011;10652;50.306;8.570;2022-08-25T18:04:14;2.92;;;2.70;;
20986;SDS011;10652;50.306;8.570;2022-08-25T18:08:19;5.32;;;2.60;;
20986;SDS011;10652;50.306;8.570;2022-08-25T18:12:33;5.25;;;3.13;;
20986;SDS011;10652;50.306;8.570;2022-08-25T18:16:36;3.67;;;2.65;;
20986;SDS011;10652;50.306;8.570;2022-08-25T18:20:38;5.60;;;3.70;;
20986;SDS011;10652;50.306;8.570;2022-08-25T18:24:41;3.70;;;3.33;;
20986;SDS011;10652;50.306;8.570;2022-08-25T18:28:43;3.88;;;2.90;;
20986;SDS011;10652;50.306;8.570;2022-08-25T18:32:46;5.03;;;2.80;;
20986;SDS011;10652;50.306;8.570;2022-08-25T18:36:49;8.05;;;2.88;;
20986;SDS011;10652;50.306;8.570;2022-08-25T18:40:54;5.45;;;3.00;;
20986;SDS011;10652;50.306;8.570;2022-08-25T18:44:57;3.20;;;2.55;;
20986;SDS011;10652;50.306;8.570;2022-08-25T18:49:00;4.22;;;2.80;;
20986;SDS011;10652;50.306;8.570;2022-08-25T18:53:03;4.00;;;3.00;;
20986;SDS011;10652;50.306;8.570;2022-08-25T18:57:07;3.72;;;2.80;;
20986;SDS011;10652;50.306;8.570;2022-08-25T19:01:13;8.57;;;3.65;;
20986;SDS011;10652;50.306;8.570;2022-08-25T19:05:18;4.32;;;3.17;;
20986;SDS011;10652;50.306;8.570;2022-08-25T19:09:23;5.87;;;3.27;;
20986;SDS011;10652;50.306;8.570;2022-08-25T19:13:25;4.47;;;2.88;;
20986;SDS011;10652;50.306;8.570;2022-08-25T19:17:27;6.35;;;3.10;;
20986;SDS011;10652;50.306;8.570;2022-08-25T19:21:39;6.78;;;3.35;;
20986;SDS011;10652;50.306;8.570;2022-08-25T19:25:42;6.20;;;3.08;;
20986;SDS011;10652;50.306;8.570;2022-08-25T19:29:44;5.15;;;3.15;;
20986;SDS011;10652;50.306;8.570;2022-08-25T19:33:47;6.40;;;2.95;;
20986;SDS011;10652;50.306;8.570;2022-08-25T19:37:52;5.40;;;2.78;;
20986;SDS011;10652;50.306;8.570;2022-08-25T19:41:56;2.90;;;2.58;;
20986;SDS011;10652;50.306;8.570;2022-08-25T19:46:00;4.68;;;3.30;;
20986;SDS011;10652;50.306;8.570;2022-08-25T19:50:04;4.82;;;3.58;;
20986;SDS011;10652;50.306;8.570;2022-08-25T19:54:22;4.45;;;3.00;;
20986;SDS011;10652;50.306;8.570;2022-08-25T19:58:27;3.25;;;2.92;;
20986;SDS011;10652;50.306;8.570;2022-08-25T20:02:29;5.75;;;3.42;;
20986;SDS011;10652;50.306;8.570;2022-08-25T20:06:32;5.47;;;3.53;;
20986;SDS011;10652;50.306;8.570;2022-08-25T20:10:36;4.22;;;3.55;;
20986;SDS011;10652;50.306;8.570;2022-08-25T20:14:42;6.72;;;3.70;;
20986;SDS011;10652;50.306;8.570;2022-08-25T20:18:45;4.20;;;3.40;;
20986;SDS011;10652;50.306;8.570;2022-08-25T20:22:47;4.10;;;3.40;;
20986;SDS011;10652;50.306;8.570;2022-08-25T20:26:50;5.85;;;3.80;;
20986;SDS011;10652;50.306;8.570;2022-08-25T20:30:53;3.63;;;3.33;;
20986;SDS011;10652;50.306;8.570;2022-08-25T20:34:55;4.10;;;3.50;;
20986;SDS011;10652;50.306;8.570;2022-08-25T20:38:58;4.60;;;3.60;;
20986;SDS011;10652;50.306;8.570;2022-08-25T20:43:00;7.82;;;3.63;;
20986;SDS011;10652;50.306;8.570;2022-08-25T20:47:05;3.80;;;3.50;;
20986;SDS011;10652;50.306;8.570;2022-08-25T20:51:11;3.85;;;3.45;;
20986;SDS011;10652;50.306;8.570;2022-08-25T20:55:13;12.00;;;3.88;;
20986;SDS011;10652;50.306;8.570;2022-08-25T20:59:20;6.05;;;3.60;;
20986;SDS011;10652;50.306;8.570;2022-08-25T21:03:23;4.43;;;3.33;;
20986;SDS011;10652;50.306;8.570;2022-08-25T21:07:26;4.70;;;3.75;;
20986;SDS011;10652;50.306;8.570;2022-08-25T21:11:29;4.30;;;3.63;;
20986;SDS011;10652;50.306;8.570;2022-08-25T21:15:31;4.30;;;3.28;;
20986;SDS011;10652;50.306;8.570;2022-08-25T21:19:33;4.97;;;3.83;;
20986;SDS011;10652;50.306;8.570;2022-08-25T21:23:36;4.95;;;3.45;;
20986;SDS011;10652;50.306;8.570;2022-08-25T21:27:39;8.82;;;4.05;;
20986;SDS011;10652;50.306;8.570;2022-08-25T21:31:44;4.13;;;3.72;;
20986;SDS011;10652;50.306;8.570;2022-08-25T21:35:49;5.47;;;3.75;;
20986;SDS011;10652;50.306;8.570;2022-08-25T21:39:52;4.20;;;3.80;;
20986;SDS011;10652;50.306;8.570;2022-08-25T21:43:54;5.93;;;3.70;;
20986;SDS011;10652;50.306;8.570;2022-08-25T21:47:57;6.28;;;3.90;;
20986;SDS011;10652;50.306;8.570;2022-08-25T21:52:00;4.88;;;3.47;;
20986;SDS011;10652;50.306;8.570;2022-08-25T21:56:06;3.65;;;3.30;;
20986;SDS011;10652;50.306;8.570;2022-08-25T22:00:10;6.88;;;4.03;;
20986;SDS011;10652;50.306;8.570;2022-08-25T22:04:14;7.72;;;4.70;;
20986;SDS011;10652;50.306;8.570;2022-08-25T22:08:16;6.68;;;4.18;;
20986;SDS011;10652;50.306;8.570;2022-08-25T22:12:20;5.13;;;3.85;;
20986;SDS011;10652;50.306;8.570;2022-08-25T22:16:22;4.60;;;4.00;;
20986;SDS011;10652;50.306;8.570;2022-08-25T22:20:25;5.28;;;4.20;;
20986;SDS011;10652;50.306;8.570;2022-08-25T22:24:29;6.47;;;4.00;;
20986;SDS011;10652;50.306;8.570;2022-08-25T22:28:31;4.72;;;3.78;;
20986;SDS011;10652;50.306;8.570;2022-08-25T22:32:34;6.85;;;3.72;;
20986;SDS011;10652;50.306;8.570;2022-08-25T22:36:36;5.28;;;4.10;;
20986;SDS011;10652;50.306;8.570;2022-08-25T22:40:40;4.93;;;3.70;;
20986;SDS011;10652;50.306;8.570;2022-08-25T22:44:42;5.53;;;4.22;;
20986;SDS011;10652;50.306;8.570;2022-08-25T22:48:44;5.63;;;3.92;;
20986;SDS011;10652;50.306;8.570;2022-08-25T22:52:47;5.70;;;4.03;;
20986;SDS011;10652;50.306;8.570;2022-08-25T22:56:49;5.18;;;4.25;;
20986;SDS011;10652;50.306;8.570;2022-08-25T23:00:51;5.47;;;4.40;;
20986;SDS011;10652;50.306;8.570;2022-08-25T23:04:53;4.85;;;4.03;;
20986;SDS011;10652;50.306;8.570;2022-08-25T23:08:56;5.45;;;4.55;;
20986;SDS011;10652;50.306;8.570;2022-08-25T23:12:59;4.80;;;4.03;;
20986;SDS011;10652;50.306;8.570;2022-08-25T23:17:01;7.78;;;4.65;;
20986;SDS011;10652;50.306;8.570;2022-08-25T23:21:08;6.07;;;3.80;;
20986;SDS011;10652;50.306;8.570;2022-08-25T23:25:28;7.28;;;4.10;;
20986;SDS011;10652;50.306;8.570;2022-08-25T23:29:31;6.55;;;4.35;;
20986;SDS011;10652;50.306;8.570;2022-08-25T23:33:36;4.43;;;3.95;;
20986;SDS011;10652;50.306;8.570;2022-08-25T23:37:39;5.20;;;4.15;;
20986;SDS011;10652;50.306;8.570;2022-08-25T23:41:41;4.32;;;3.92;;
20986;SDS011;10652;50.306;8.570;2022-08-25T23:45:43;6.25;;;4.28;;
20986;SDS011;10652;50.306;8.570;2022-08-25T23:49:46;4.88;;;4.10;;
20986;SDS011;10652;50.306;8.570;2022-08-25T23:53:49;4.45;;;4.05;;
20986;SDS011;10652;50.306;8.570;2022-08-25T23:57:51;7.78;;;4.10;;
